Time;durP1;ratioP1;P1;durP2;ratioP2;P2;SDS_P1;SDS_P2;PMS_P1;PMS_P2;Temp;Humidity;BMP_temperature;BMP_pressure;BME280_temperature;BME280_humidity;BME280_pressure;Samples;Min_cycle;Max_cycle;Signal;HPM_P1;HPM_P2
2021/12/25 00:03:16;;;;;;;2.63;1.63;;;-0.10;99.90;;;;;;5110111;28;20099;-79
2021/12/25 00:05:45;;;;;;;5.05;1.60;;;-0.20;99.90;;;;;;5076498;28;20048;-79
2021/12/25 00:08:11;;;;;;;4.85;1.52;;;-0.20;99.90;;;;;;5093772;28;20051;-79
2021/12/25 00:10:37;;;;;;;5.13;1.83;;;1.20;99.90;;;;;;5093545;28;20055;-79
2021/12/25 00:13:02;;;;;;;7.43;1.63;;;0.80;99.90;;;;;;5108467;28;20499;-78
2021/12/25 00:15:28;;;;;;;3.95;1.55;;;1.30;99.90;;;;;;5102240;28;20043;-78
2021/12/25 00:17:54;;;;;;;3.22;1.38;;;-0.30;99.90;;;;;;5091489;28;20051;-78
2021/12/25 00:20:20;;;;;;;1.92;1.08;;;0.70;99.90;;;;;;5092659;28;20071;-78
2021/12/25 00:22:45;;;;;;;7.05;1.60;;;0.60;99.90;;;;;;5091350;28;20104;-78
2021/12/25 00:25:12;;;;;;;7.95;1.60;;;-0.40;99.90;;;;;;5106912;28;20055;-78
2021/12/25 00:30:43;;;;;;;3.58;1.20;;;-0.40;99.90;;;;;;5074195;28;20408;-81
2021/12/25 00:34:10;;;;;;;4.03;1.00;;;0.30;99.90;;;;;;5092697;28;20082;-81
2021/12/25 00:36:04;;;;;;;2.95;1.17;;;0.80;99.90;;;;;;5096981;28;20059;-81
2021/12/25 00:38:31;;;;;;;4.45;1.20;;;-0.50;99.90;;;;;;5109555;28;20535;-81
2021/12/25 00:40:58;;;;;;;3.67;1.10;;;1.10;99.90;;;;;;5076358;28;20051;-78
2021/12/25 00:43:23;;;;;;;2.90;1.15;;;0.70;99.90;;;;;;5106487;28;20085;-78
2021/12/25 00:45:49;;;;;;;2.72;1.10;;;-0.60;99.90;;;;;;5075932;28;20110;-78
2021/12/25 00:48:15;;;;;;;4.32;1.23;;;-0.60;99.90;;;;;;5108421;28;20097;-78
2021/12/25 00:50:41;;;;;;;2.92;1.20;;;-0.60;99.90;;;;;;5075215;28;20044;-79
2021/12/25 00:53:06;;;;;;;16.13;2.13;;;-0.70;99.90;;;;;;5100118;28;20047;-79
2021/12/25 00:55:32;;;;;;;3.15;1.02;;;0.00;99.90;;;;;;5084558;27;20146;-78
2021/12/25 00:57:58;;;;;;;2.60;1.05;;;-0.70;99.90;;;;;;5112249;27;20051;-79
2021/12/25 01:00:24;;;;;;;6.97;1.15;;;-0.70;99.90;;;;;;5127142;27;20050;-79
2021/12/25 01:02:50;;;;;;;3.25;1.23;;;-0.80;99.90;;;;;;5110738;27;20135;-79
2021/12/25 01:05:17;;;;;;;2.17;1.10;;;0.60;99.90;;;;;;5093559;27;20050;-79
2021/12/25 01:07:43;;;;;;;2.45;1.00;;;-0.90;99.90;;;;;;5111435;27;20069;-80
2021/12/25 01:10:14;;;;;;;3.60;0.90;;;-0.90;99.90;;;;;;5122432;27;20055;-79
2021/12/25 01:13:07;;;;;;;4.22;1.15;;;-0.80;99.90;;;;;;5123039;27;20134;-79
2021/12/25 01:31:24;;;;;;;2.67;1.00;;;-0.90;99.90;;;;;;5100257;27;20059;-79
2021/12/25 01:36:45;;;;;;;4.90;1.17;;;0.60;99.90;;;;;;5097308;27;20046;-79
2021/12/25 01:39:18;;;;;;;2.67;1.08;;;0.20;99.90;;;;;;5106921;27;20069;-79
2021/12/25 01:42:03;;;;;;;2.30;0.68;;;0.10;99.90;;;;;;5111971;27;20062;-80
2021/12/25 01:50:00;;;;;;;4.05;0.82;;;-0.30;99.90;;;;;;5126192;27;20058;-79
2021/12/25 01:52:29;;;;;;;3.97;1.25;;;-0.20;99.90;;;;;;5128874;27;20062;-80
2021/12/25 01:55:02;;;;;;;3.22;0.80;;;-0.80;99.90;;;;;;5126013;27;20070;-79
2021/12/25 01:57:30;;;;;;;2.70;1.10;;;-1.10;99.90;;;;;;5128337;27;20229;-79
2021/12/25 01:59:57;;;;;;;2.10;0.90;;;-1.40;99.90;;;;;;5108943;27;20127;-79
2021/12/25 02:02:22;;;;;;;3.85;0.90;;;-0.50;99.90;;;;;;5126610;27;20050;-79
2021/12/25 02:04:48;;;;;;;5.45;1.02;;;-0.50;99.90;;;;;;5109476;27;20066;-79
2021/12/25 02:07:14;;;;;;;4.75;1.20;;;-1.00;99.90;;;;;;5109643;27;20091;-79
2021/12/25 02:09:40;;;;;;;1.30;0.80;;;-1.50;99.90;;;;;;5128133;27;20050;-78
2021/12/25 02:12:07;;;;;;;4.57;0.88;;;-1.20;99.90;;;;;;5093344;27;20034;-78
2021/12/25 02:14:34;;;;;;;2.35;0.90;;;-1.60;99.90;;;;;;5127358;27;20043;-77
2021/12/25 02:17:13;;;;;;;4.20;1.20;;;-0.60;99.90;;;;;;5120757;27;20061;-80
2021/12/25 02:19:58;;;;;;;2.88;1.00;;;0.00;99.90;;;;;;5096663;27;20039;-80
2021/12/25 02:22:27;;;;;;;2.20;1.10;;;-1.70;99.90;;;;;;5095785;27;20126;-79
2021/12/25 02:24:53;;;;;;;4.97;1.25;;;-0.60;99.90;;;;;;5118991;27;20047;-79
2021/12/25 02:27:19;;;;;;;3.72;0.95;;;-1.70;99.90;;;;;;5110824;27;20047;-79
2021/12/25 02:29:45;;;;;;;3.47;0.75;;;-0.20;99.90;;;;;;5094192;27;20035;-79
2021/12/25 02:32:10;;;;;;;1.70;0.98;;;-1.70;99.90;;;;;;5108827;27;20169;-79
2021/12/25 02:34:36;;;;;;;1.30;1.00;;;-1.60;99.90;;;;;;5127613;27;20043;-80
2021/12/25 02:37:03;;;;;;;2.67;0.93;;;-1.80;99.90;;;;;;5127788;27;20621;-80
2021/12/25 02:39:29;;;;;;;1.45;0.77;;;-1.80;99.90;;;;;;5126350;27;20050;-78
2021/12/25 02:41:55;;;;;;;2.72;1.10;;;-1.90;99.90;;;;;;5092229;27;20039;-80
2021/12/25 02:44:20;;;;;;;2.10;1.00;;;-1.90;99.90;;;;;;5094036;27;20062;-80
2021/12/25 02:46:48;;;;;;;2.72;0.93;;;-0.70;99.90;;;;;;5093205;27;20052;-79
2021/12/25 02:49:14;;;;;;;2.63;0.90;;;-0.70;99.90;;;;;;5110001;27;20058;-80
2021/12/25 02:51:47;;;;;;;1.50;0.85;;;-1.90;99.90;;;;;;5126590;27;20047;-78
2021/12/25 02:54:13;;;;;;;1.45;0.77;;;-0.50;99.90;;;;;;5109017;27;20511;-80
2021/12/25 02:56:39;;;;;;;2.80;0.75;;;-0.70;99.90;;;;;;5098913;28;20059;-79
2021/12/25 02:59:04;;;;;;;3.40;1.27;;;-0.70;99.90;;;;;;5088386;28;20039;-79
2021/12/25 03:01:30;;;;;;;3.63;0.90;;;-2.10;99.90;;;;;;5065329;28;20400;-79
2021/12/25 03:03:56;;;;;;;3.30;0.90;;;-0.70;99.90;;;;;;5104549;28;20389;-79
2021/12/25 03:06:23;;;;;;;4.25;1.10;;;-2.10;99.90;;;;;;5088766;28;20110;-79
2021/12/25 03:08:49;;;;;;;3.22;1.00;;;-1.30;99.90;;;;;;5067112;28;20064;-79
2021/12/25 03:11:15;;;;;;;1.52;0.98;;;-2.20;99.90;;;;;;5105191;28;20133;-80
2021/12/25 03:13:56;;;;;;;4.78;1.10;;;-0.80;99.90;;;;;;5123494;28;20040;-79
2021/12/25 03:16:22;;;;;;;3.47;1.40;;;-2.30;99.90;;;;;;5074770;28;20165;-80
2021/12/25 03:18:51;;;;;;;2.58;0.93;;;-2.30;99.90;;;;;;5106296;28;20097;-79
2021/12/25 03:21:17;;;;;;;3.60;0.95;;;-1.50;99.90;;;;;;5089788;28;20048;-78
2021/12/25 03:23:44;;;;;;;1.50;0.88;;;-1.90;99.90;;;;;;5098528;28;20099;-77
2021/12/25 03:26:11;;;;;;;1.73;0.88;;;-2.40;99.90;;;;;;5105835;28;20081;-78
2021/12/25 03:28:41;;;;;;;5.90;1.02;;;-1.00;99.90;;;;;;5097810;28;20606;-77
2021/12/25 03:31:15;;;;;;;3.38;0.80;;;-1.40;99.90;;;;;;5104759;28;20047;-78
2021/12/25 03:33:43;;;;;;;1.45;0.90;;;-2.50;99.90;;;;;;5088506;28;20092;-77
2021/12/25 03:36:09;;;;;;;2.03;0.80;;;-1.90;99.90;;;;;;5098922;28;20043;-77
2021/12/25 03:38:34;;;;;;;4.03;1.05;;;-1.60;99.90;;;;;;5073884;28;20062;-79
2021/12/25 03:41:00;;;;;;;2.97;1.10;;;-1.70;99.90;;;;;;5090129;28;20040;-80
2021/12/25 03:43:27;;;;;;;3.38;1.10;;;-1.80;99.90;;;;;;5088485;28;20054;-80
2021/12/25 03:45:54;;;;;;;3.35;0.93;;;-1.20;99.90;;;;;;5088791;28;20598;-80
2021/12/25 03:57:38;;;;;;;3.22;0.80;;;-2.80;99.90;;;;;;5123404;28;20130;-80
2021/12/25 03:59:12;;;;;;;3.05;0.88;;;-1.60;99.90;;;;;;5127318;28;20377;-79
2021/12/25 04:04:14;;;;;;;2.40;0.80;;;-2.50;99.90;;;;;;5124718;28;20158;-80
2021/12/25 04:06:49;;;;;;;2.28;0.60;;;-1.50;99.90;;;;;;5125292;28;20054;-80
2021/12/25 04:09:30;;;;;;;2.00;0.88;;;-2.90;99.90;;;;;;5101483;28;20100;-80
2021/12/25 04:11:59;;;;;;;1.92;0.82;;;-2.60;99.90;;;;;;5108537;28;20051;-80
2021/12/25 04:14:25;;;;;;;2.05;0.60;;;-3.00;99.90;;;;;;5109445;28;20411;-77
2021/12/25 04:16:51;;;;;;;1.20;0.70;;;-3.00;99.90;;;;;;5093428;27;20051;-77
2021/12/25 04:19:17;;;;;;;0.63;0.52;;;-1.50;99.90;;;;;;5095538;27;20055;-77
2021/12/25 04:21:56;;;;;;;2.80;0.80;;;-1.90;99.90;;;;;;5097193;27;20062;-77
2021/12/25 04:24:23;;;;;;;1.00;0.65;;;-3.10;99.90;;;;;;5113211;27;20104;-77
2021/12/25 04:26:50;;;;;;;2.47;0.70;;;-3.10;99.90;;;;;;5113463;27;20061;-78
2021/12/25 04:42:50;;;;;;;1.00;0.60;;;-3.20;99.90;;;;;;5129961;27;20071;-77
2021/12/25 05:04:18;;;;;;;0.68;0.60;;;-3.40;99.90;;;;;;5127031;27;20079;-77
2021/12/25 05:06:43;;;;;;;0.90;0.60;;;-1.60;99.90;;;;;;5096923;27;20047;-76
2021/12/25 05:09:09;;;;;;;1.13;0.57;;;-3.20;99.90;;;;;;5094698;27;20043;-77
2021/12/25 05:11:35;;;;;;;1.55;1.35;;;-1.80;99.90;;;;;;5095698;27;20047;-77
2021/12/25 05:14:01;;;;;;;1.30;0.60;;;-3.50;99.90;;;;;;5109357;27;20122;-78
2021/12/25 05:16:27;;;;;;;1.75;0.57;;;-3.40;99.90;;;;;;5094201;27;20051;-78
2021/12/25 05:18:53;;;;;;;1.15;0.70;;;-2.60;99.90;;;;;;5127354;27;20039;-77
2021/12/25 05:21:19;;;;;;;2.45;0.80;;;-3.50;99.90;;;;;;5095041;27;20847;-77
2021/12/25 05:23:47;;;;;;;0.95;0.60;;;-1.70;99.90;;;;;;5094483;27;20047;-77
2021/12/25 05:26:13;;;;;;;2.58;0.70;;;-3.60;99.90;;;;;;5095389;27;20046;-77
2021/12/25 05:28:40;;;;;;;0.75;0.60;;;-2.10;99.90;;;;;;5124270;27;20115;-77
2021/12/25 05:31:08;;;;;;;1.58;0.80;;;-3.60;99.90;;;;;;5127515;27;20066;-77
2021/12/25 05:33:34;;;;;;;1.40;0.70;;;-3.60;99.90;;;;;;5110436;27;20553;-77
2021/12/25 05:36:00;;;;;;;1.23;0.60;;;-3.70;99.90;;;;;;5111756;27;20058;-77
2021/12/25 05:38:26;;;;;;;1.15;0.65;;;-2.20;99.90;;;;;;5127774;27;20114;-77
2021/12/25 05:40:53;;;;;;;3.80;0.60;;;-1.80;99.90;;;;;;5112493;27;20519;-77
2021/12/25 05:43:19;;;;;;;1.67;0.65;;;-2.30;99.90;;;;;;5093675;27;20531;-77
2021/12/25 05:45:45;;;;;;;0.55;0.50;;;-2.40;99.90;;;;;;5109816;27;20099;-77
2021/12/25 05:48:12;;;;;;;0.82;0.55;;;-2.00;99.90;;;;;;5126162;27;20115;-77
2021/12/25 05:50:38;;;;;;;2.30;0.80;;;-3.70;99.90;;;;;;5095632;27;20059;-78
2021/12/25 05:53:05;;;;;;;1.08;0.50;;;-3.80;99.90;;;;;;5126124;27;20088;-78
2021/12/25 05:55:32;;;;;;;1.70;0.60;;;-3.80;99.90;;;;;;5128718;27;20979;-78
2021/12/25 05:57:58;;;;;;;2.50;0.70;;;-3.00;99.90;;;;;;5127511;27;20089;-79
2021/12/25 06:00:25;;;;;;;1.13;0.70;;;-2.00;99.90;;;;;;5110705;27;20147;-78
2021/12/25 06:02:51;;;;;;;1.20;0.70;;;-3.80;99.90;;;;;;5125012;27;20051;-78
2021/12/25 06:05:18;;;;;;;1.75;0.68;;;-2.10;99.90;;;;;;5125166;27;20043;-78
2021/12/25 06:07:44;;;;;;;1.05;0.60;;;-2.10;99.90;;;;;;5110322;27;20070;-78
2021/12/25 06:10:11;;;;;;;0.95;0.70;;;-2.80;99.90;;;;;;5101866;27;20488;-79
2021/12/25 06:12:42;;;;;;;1.30;0.60;;;-4.00;99.90;;;;;;5109948;27;20093;-79
2021/12/25 06:15:11;;;;;;;2.60;0.60;;;-4.10;99.90;;;;;;5126694;27;20308;-79
2021/12/25 06:17:37;;;;;;;4.15;0.85;;;-4.00;99.90;;;;;;5128507;27;20039;-79
2021/12/25 06:20:03;;;;;;;0.57;0.57;;;-3.10;99.90;;;;;;5111138;27;20115;-79
2021/12/25 06:22:29;;;;;;;1.52;0.52;;;-4.10;99.90;;;;;;5107408;27;20120;-78
2021/12/25 06:24:55;;;;;;;1.40;0.73;;;-4.10;99.90;;;;;;5077743;27;20039;-79
2021/12/25 06:27:21;;;;;;;1.95;0.60;;;-4.20;99.90;;;;;;5077190;27;20051;-78
2021/12/25 06:29:48;;;;;;;1.33;0.70;;;-4.20;99.90;;;;;;5111575;27;20043;-77
2021/12/25 06:32:14;;;;;;;0.75;0.60;;;-4.20;99.90;;;;;;5126381;27;20043;-77
2021/12/25 06:34:41;;;;;;;1.35;0.70;;;-2.90;99.90;;;;;;5110427;27;20043;-79
2021/12/25 06:37:07;;;;;;;1.70;0.80;;;-2.50;99.90;;;;;;5119267;27;20063;-81
2021/12/25 06:39:33;;;;;;;0.63;0.60;;;-2.70;99.90;;;;;;5109827;27;20047;-78
2021/12/25 06:41:59;;;;;;;1.67;0.82;;;-4.10;99.90;;;;;;5091883;27;20058;-78
2021/12/25 06:44:27;;;;;;;0.60;0.50;;;-2.30;99.90;;;;;;5126451;27;20384;-78
2021/12/25 06:46:53;;;;;;;1.42;0.63;;;-4.30;99.90;;;;;;5127766;27;20070;-78
2021/12/25 06:49:21;;;;;;;2.92;0.65;;;-4.30;99.90;;;;;;5127592;27;20216;-80
2021/12/25 06:51:47;;;;;;;2.15;0.60;;;-4.40;99.90;;;;;;5127654;27;20043;-78
2021/12/25 06:54:13;;;;;;;0.60;0.60;;;-2.70;99.90;;;;;;5122615;27;20118;-80
2021/12/25 06:56:39;;;;;;;1.33;0.70;;;-3.50;99.90;;;;;;5090877;27;20176;-80
2021/12/25 06:59:05;;;;;;;1.08;0.60;;;-2.50;99.90;;;;;;5128714;27;20130;-80
2021/12/25 07:01:31;;;;;;;1.38;0.70;;;-4.40;99.90;;;;;;5090202;28;20171;-81
2021/12/25 07:03:57;;;;;;;1.80;0.60;;;-2.90;99.90;;;;;;5093211;28;20036;-80
2021/12/25 07:06:23;;;;;;;2.22;0.60;;;-4.40;99.90;;;;;;5125268;28;20046;-80
2021/12/25 07:08:49;;;;;;;0.98;0.68;;;-4.40;99.90;;;;;;5127684;28;20043;-80
2021/12/25 07:11:16;;;;;;;1.50;0.70;;;-3.70;99.90;;;;;;5126978;28;20079;-80
2021/12/25 07:13:44;;;;;;;1.27;0.80;;;-4.40;99.90;;;;;;5093019;28;20180;-81
2021/12/25 07:16:10;;;;;;;1.35;0.60;;;-4.40;99.90;;;;;;5109355;28;20051;-80
2021/12/25 07:18:36;;;;;;;2.47;0.70;;;-2.80;99.90;;;;;;5110520;28;20133;-79
2021/12/25 07:21:03;;;;;;;1.67;0.70;;;-4.60;99.90;;;;;;5086537;28;20176;-78
2021/12/25 07:23:29;;;;;;;2.53;0.60;;;-4.50;99.90;;;;;;5109221;28;20404;-77
2021/12/25 07:25:55;;;;;;;1.80;0.70;;;-4.50;99.90;;;;;;5075997;28;20051;-78
2021/12/25 07:28:20;;;;;;;1.15;0.77;;;-2.70;99.90;;;;;;5126208;28;20131;-80
2021/12/25 07:30:46;;;;;;;1.90;0.60;;;-4.50;99.90;;;;;;5122711;28;20483;-79
2021/12/25 07:33:12;;;;;;;2.22;0.70;;;-4.60;99.90;;;;;;5110111;28;20039;-80
2021/12/25 07:35:38;;;;;;;0.90;0.65;;;-4.50;99.90;;;;;;5125834;28;20058;-80
2021/12/25 07:38:04;;;;;;;2.05;0.68;;;-4.00;99.90;;;;;;5111813;28;20476;-79
2021/12/25 07:40:30;;;;;;;0.90;0.52;;;-3.90;99.90;;;;;;5127405;28;20047;-78
2021/12/25 07:42:55;;;;;;;0.82;0.57;;;-3.00;99.90;;;;;;5122812;28;20043;-80
2021/12/25 07:45:22;;;;;;;2.05;0.65;;;-5.20;99.90;;;;;;5093447;28;20109;-79
2021/12/25 07:47:56;;;;;;;1.95;0.73;;;-2.60;99.90;;;;;;5104153;28;20050;-79
2021/12/25 07:50:22;;;;;;;1.58;0.60;;;-4.70;99.90;;;;;;5125813;28;20059;-80
2021/12/25 07:52:48;;;;;;;2.45;0.82;;;-4.60;99.90;;;;;;5105779;27;20058;-78
2021/12/25 07:55:14;;;;;;;1.38;0.70;;;-4.50;99.90;;;;;;5108456;27;20043;-79
2021/12/25 07:57:40;;;;;;;2.08;0.70;;;-4.60;99.90;;;;;;5124971;27;20048;-83
2021/12/25 08:00:09;;;;;;;1.70;0.65;;;-3.20;99.90;;;;;;5125587;27;20118;-80
2021/12/25 08:02:35;;;;;;;1.67;0.70;;;-4.60;99.90;;;;;;5108321;27;20043;-79
2021/12/25 08:05:01;;;;;;;1.38;1.13;;;-4.50;99.90;;;;;;5123375;27;20047;-80
2021/12/25 08:07:26;;;;;;;1.10;0.70;;;-4.60;99.90;;;;;;5109133;27;20043;-78
2021/12/25 08:09:57;;;;;;;2.42;0.80;;;-4.00;99.90;;;;;;5087567;27;20405;-78
2021/12/25 08:12:22;;;;;;;3.30;0.80;;;-4.30;99.90;;;;;;5105510;27;20055;-81
2021/12/25 08:14:48;;;;;;;0.75;0.70;;;-3.40;99.90;;;;;;5106397;27;20050;-81
2021/12/25 08:17:14;;;;;;;4.95;0.68;;;-4.60;99.90;;;;;;5092391;27;20085;-80
2021/12/25 08:19:40;;;;;;;1.42;0.77;;;-3.00;99.90;;;;;;5108084;27;20507;-80
2021/12/25 08:22:06;;;;;;;1.83;0.88;;;-3.40;99.90;;;;;;5120082;27;20082;-80
2021/12/25 08:24:32;;;;;;;2.38;0.73;;;-4.50;99.90;;;;;;5107646;27;20080;-83
2021/12/25 08:27:04;;;;;;;0.73;0.70;;;-4.20;99.90;;;;;;5109728;27;20058;-83
2021/12/25 08:29:31;;;;;;;1.20;0.63;;;-3.10;99.90;;;;;;5124490;27;20039;-83
2021/12/25 08:31:57;;;;;;;1.77;0.80;;;-4.60;99.90;;;;;;5106650;27;20050;-83
2021/12/25 08:34:23;;;;;;;1.20;0.70;;;-4.50;99.90;;;;;;5093804;27;20062;-83
2021/12/25 08:36:49;;;;;;;1.08;0.75;;;-3.50;99.90;;;;;;5107869;27;20047;-82
2021/12/25 08:39:14;;;;;;;1.08;0.70;;;-3.70;99.90;;;;;;5094816;27;20500;-83
2021/12/25 08:41:41;;;;;;;1.20;0.70;;;;;;;;;;5091698;27;20493;-84
2021/12/25 08:44:19;;;;;;;1.70;0.90;;;-3.30;99.90;;;;;;5124234;27;20384;-84
2021/12/25 08:46:55;;;;;;;1.60;0.60;;;-2.60;99.90;;;;;;5095394;27;20080;-84
2021/12/25 08:49:25;;;;;;;1.38;0.70;;;-2.10;99.90;;;;;;5107226;27;20074;-83
2021/12/25 08:51:52;;;;;;;3.83;0.90;;;;;;;;;;5122054;27;20051;-82
2021/12/25 08:54:18;;;;;;;0.68;0.65;;;-1.80;99.90;;;;;;5122727;27;20048;-85
2021/12/25 08:56:44;;;;;;;1.90;0.57;;;-0.40;99.90;;;;;;5084828;28;20134;-81
2021/12/25 08:59:10;;;;;;;2.20;0.85;;;-0.80;99.90;;;;;;5107024;28;20833;-80
2021/12/25 09:01:36;;;;;;;1.15;0.80;;;-0.70;99.90;;;;;;5086293;28;20925;-81
2021/12/25 09:04:02;;;;;;;2.47;0.60;;;-1.40;99.90;;;;;;5072704;28;20052;-79
2021/12/25 09:06:28;;;;;;;2.17;0.60;;;-1.40;99.90;;;;;;5101259;28;20052;-80
2021/12/25 09:08:53;;;;;;;1.88;0.80;;;-2.80;99.90;;;;;;5084867;28;20063;-80
2021/12/25 09:11:21;;;;;;;2.70;0.82;;;-3.00;99.90;;;;;;5089254;28;20036;-82
2021/12/25 09:13:48;;;;;;;1.17;0.73;;;-3.10;99.90;;;;;;5072267;28;20040;-81
2021/12/25 09:16:14;;;;;;;2.03;0.68;;;-3.30;99.90;;;;;;5090405;28;20043;-79
2021/12/25 09:18:40;;;;;;;1.55;0.70;;;-3.30;99.90;;;;;;5088539;28;20047;-80
2021/12/25 09:21:09;;;;;;;1.65;0.82;;;-1.40;99.90;;;;;;5091705;28;20042;-81
2021/12/25 09:23:35;;;;;;;2.60;0.85;;;-3.50;99.90;;;;;;5073734;28;20047;-78
2021/12/25 09:26:00;;;;;;;1.98;0.85;;;-3.10;99.90;;;;;;5085520;28;20054;-78
2021/12/25 09:28:26;;;;;;;2.90;0.90;;;-3.60;99.90;;;;;;5089006;28;20051;-80
2021/12/25 09:30:52;;;;;;;1.45;0.70;;;-1.70;99.90;;;;;;5090962;28;20476;-81
2021/12/25 09:33:18;;;;;;;2.25;0.80;;;-3.10;99.90;;;;;;5091004;28;20447;-81
2021/12/25 09:35:44;;;;;;;2.58;0.70;;;-2.80;99.90;;;;;;5090755;28;20100;-81
2021/12/25 09:38:10;;;;;;;0.98;0.57;;;-0.80;99.90;;;;;;5073983;28;20500;-80
2021/12/25 09:40:35;;;;;;;3.88;0.80;;;-0.80;99.90;;;;;;5104746;28;20035;-80
2021/12/25 09:43:02;;;;;;;1.58;0.70;;;-1.50;99.90;;;;;;5083386;28;20617;-81
2021/12/25 09:45:28;;;;;;;2.83;0.90;;;-1.40;99.90;;;;;;5106286;28;20044;-80
2021/12/25 09:47:54;;;;;;;3.17;0.70;;;-1.40;99.90;;;;;;5091098;28;20039;-81
2021/12/25 09:50:20;;;;;;;2.55;0.80;;;-1.30;99.90;;;;;;5085211;28;20048;-81
2021/12/25 09:52:46;;;;;;;1.10;0.60;;;0.50;99.90;;;;;;5090118;28;20047;-81
2021/12/25 09:55:13;;;;;;;4.13;0.90;;;0.20;99.90;;;;;;5074017;28;20055;-81
2021/12/25 09:57:39;;;;;;;1.95;0.80;;;-0.50;99.90;;;;;;5111790;27;20055;-82
2021/12/25 10:00:12;;;;;;;0.90;0.60;;;-0.90;99.90;;;;;;5128488;27;20055;-81
2021/12/25 10:02:47;;;;;;;1.42;0.85;;;-0.70;99.90;;;;;;5106396;27;20075;-81
2021/12/25 10:05:21;;;;;;;5.43;0.97;;;-0.40;99.90;;;;;;5103169;27;20134;-81
2021/12/25 10:07:47;;;;;;;2.28;0.80;;;0.30;99.90;;;;;;5128883;27;20047;-78
2021/12/25 10:10:16;;;;;;;1.35;0.70;;;2.50;99.90;;;;;;5128224;27;20080;-81
2021/12/25 10:12:49;;;;;;;0.88;0.60;;;4.20;99.90;;;;;;5077137;27;20145;-79
2021/12/25 10:15:22;;;;;;;1.98;0.82;;;3.70;99.90;;;;;;5110592;27;20062;-78
2021/12/25 10:17:57;;;;;;;1.30;0.70;;;3.70;99.90;;;;;;5102702;27;20054;-78
2021/12/25 10:20:24;;;;;;;1.33;0.80;;;2.50;99.90;;;;;;5102929;27;20129;-78
2021/12/25 10:22:57;;;;;;;1.17;0.70;;;2.30;99.90;;;;;;5124253;27;20330;-78
2021/12/25 10:25:24;;;;;;;2.15;1.00;;;2.10;99.90;;;;;;5119463;27;20129;-83
2021/12/25 10:27:56;;;;;;;1.90;0.90;;;1.70;99.90;;;;;;5106528;27;20055;-79
2021/12/25 10:30:22;;;;;;;1.08;0.70;;;4.60;99.90;;;;;;5121098;27;20500;-79
2021/12/25 10:32:49;;;;;;;2.15;1.00;;;4.90;99.90;;;;;;5106196;27;20050;-79
2021/12/25 10:35:22;;;;;;;0.82;0.60;;;4.50;99.90;;;;;;5093322;27;20042;-79
2021/12/25 10:37:53;;;;;;;3.83;1.27;;;5.10;99.90;;;;;;5110349;27;20135;-81
2021/12/25 10:40:34;;;;;;;2.75;1.17;;;4.60;99.90;;;;;;5087488;27;20140;-80
2021/12/25 10:43:02;;;;;;;2.10;0.63;;;5.00;99.90;;;;;;5108711;27;20068;-78
2021/12/25 10:45:31;;;;;;;2.00;0.70;;;4.70;99.90;;;;;;5110378;27;20451;-80
2021/12/25 10:48:02;;;;;;;2.03;1.05;;;4.70;99.90;;;;;;5094298;27;20503;-78
2021/12/25 10:50:35;;;;;;;2.80;0.80;;;4.80;99.90;;;;;;5106820;28;20051;-80
2021/12/25 10:53:01;;;;;;;2.17;0.80;;;5.10;99.90;;;;;;5120559;27;20047;-78
2021/12/25 10:55:27;;;;;;;4.13;0.82;;;4.60;99.90;;;;;;5105608;27;20092;-80
2021/12/25 10:57:55;;;;;;;1.55;0.70;;;3.90;99.90;;;;;;5119311;27;20059;-79
2021/12/25 11:00:21;;;;;;;5.30;0.95;;;4.10;99.90;;;;;;5121489;27;20051;-80
2021/12/25 11:02:50;;;;;;;2.22;0.80;;;3.30;99.90;;;;;;5114772;28;20099;-79
2021/12/25 11:05:26;;;;;;;1.95;1.00;;;3.30;99.90;;;;;;5122691;27;20156;-79
2021/12/25 11:08:07;;;;;;;1.95;0.80;;;1.10;99.90;;;;;;5121202;28;20043;-79
2021/12/25 11:10:53;;;;;;;2.80;0.80;;;0.60;99.90;;;;;;5119363;28;20075;-78
2021/12/25 11:13:23;;;;;;;1.20;0.70;;;1.50;99.90;;;;;;5119333;28;20092;-80
2021/12/25 11:15:52;;;;;;;4.28;1.10;;;0.50;99.90;;;;;;5120527;28;20374;-79
2021/12/25 11:18:19;;;;;;;4.32;0.80;;;1.70;99.90;;;;;;5105826;28;20385;-79
2021/12/25 11:20:46;;;;;;;3.08;1.13;;;-0.50;99.90;;;;;;5121516;28;20051;-80
2021/12/25 11:23:13;;;;;;;1.15;0.77;;;-0.60;99.90;;;;;;5101452;28;20050;-80
2021/12/25 11:25:42;;;;;;;4.03;0.80;;;-0.70;99.90;;;;;;5091433;27;20497;-79
2021/12/25 11:28:12;;;;;;;1.02;0.75;;;-0.10;99.90;;;;;;5124429;27;20047;-79
2021/12/25 11:30:45;;;;;;;2.97;0.70;;;-1.00;99.90;;;;;;5123319;27;20046;-79
2021/12/25 11:33:11;;;;;;;2.42;0.80;;;-1.20;99.90;;;;;;5126376;27;20124;-80
2021/12/25 11:35:38;;;;;;;2.22;0.90;;;-1.30;99.90;;;;;;5108412;27;20088;-79
2021/12/25 11:38:07;;;;;;;0.82;0.70;;;-1.40;99.90;;;;;;5096166;27;20510;-79
2021/12/25 11:40:37;;;;;;;1.73;0.77;;;-1.50;99.90;;;;;;5126515;27;20149;-80
2021/12/25 11:43:04;;;;;;;1.67;0.70;;;-1.50;99.90;;;;;;5126793;27;20046;-79
2021/12/25 11:45:36;;;;;;;3.53;0.80;;;-1.60;99.90;;;;;;5110916;27;20100;-78
2021/12/25 11:48:13;;;;;;;2.35;0.70;;;-2.80;99.90;;;;;;5122130;27;20055;-79
2021/12/25 11:50:42;;;;;;;4.25;0.90;;;0.10;99.90;;;;;;5108091;27;20104;-79
2021/12/25 11:53:21;;;;;;;2.55;0.90;;;-1.80;99.90;;;;;;5107569;27;20056;-78
2021/12/25 11:58:53;;;;;;;1.25;0.70;;;-0.50;99.90;;;;;;5121216;27;20512;-79
2021/12/25 12:01:28;;;;;;;1.40;0.73;;;-2.00;99.90;;;;;;5104428;27;20527;-79
2021/12/25 12:04:10;;;;;;;1.30;0.70;;;-2.00;99.90;;;;;;5109706;27;20089;-79
2021/12/25 12:06:46;;;;;;;1.15;0.90;;;-2.00;99.90;;;;;;5110603;27;20039;-80
2021/12/25 12:09:24;;;;;;;1.27;0.80;;;-2.10;99.90;;;;;;5126430;27;20063;-78
2021/12/25 12:12:12;;;;;;;2.17;1.00;;;-2.00;99.90;;;;;;5104418;27;20054;-79
2021/12/25 12:14:38;;;;;;;2.28;0.95;;;-2.10;99.90;;;;;;5108558;27;20587;-79
2021/12/25 12:17:25;;;;;;;2.05;1.10;;;-1.30;99.90;;;;;;5127904;27;20043;-79
2021/12/25 12:19:54;;;;;;;2.35;0.80;;;-2.10;99.90;;;;;;5107267;27;20054;-78
2021/12/25 12:27:36;;;;;;;4.40;1.35;;;-0.60;99.90;;;;;;5123056;27;20522;-79
2021/12/25 12:30:13;;;;;;;2.50;0.70;;;-2.20;99.90;;;;;;5109032;27;20054;-79
2021/12/25 12:32:44;;;;;;;1.77;0.63;;;-1.30;99.90;;;;;;5123491;27;20057;-79
2021/12/25 12:35:33;;;;;;;1.60;0.85;;;-2.20;99.90;;;;;;5127525;27;20092;-79
2021/12/25 12:38:43;;;;;;;2.67;0.80;;;-0.70;99.90;;;;;;5119780;27;20484;-79
2021/12/25 12:41:34;;;;;;;3.03;0.73;;;-2.20;99.90;;;;;;5128437;27;20050;-79
2021/12/25 12:44:15;;;;;;;0.95;0.60;;;-2.20;99.90;;;;;;5123913;27;20499;-79
2021/12/25 12:46:50;;;;;;;1.83;0.98;;;-0.60;99.90;;;;;;5123959;27;20610;-77
2021/12/25 12:49:52;;;;;;;1.15;0.77;;;-1.80;99.90;;;;;;5118797;27;20090;-79
2021/12/25 12:52:24;;;;;;;1.70;0.73;;;-2.20;99.90;;;;;;5107144;27;20053;-79
2021/12/25 12:55:23;;;;;;;1.05;0.70;;;-2.20;99.90;;;;;;5119696;27;20122;-79
2021/12/25 12:58:04;;;;;;;1.70;1.05;;;-2.20;99.90;;;;;;5112322;27;20078;-79
2021/12/25 13:00:30;;;;;;;3.50;1.02;;;-0.30;99.90;;;;;;5109915;27;20054;-79
2021/12/25 13:02:57;;;;;;;1.38;0.70;;;-2.20;99.90;;;;;;5094055;27;20480;-80
2021/12/25 13:05:24;;;;;;;2.05;0.60;;;-2.20;99.90;;;;;;5129086;27;20039;-80
2021/12/25 13:07:53;;;;;;;0.90;0.77;;;-2.10;99.90;;;;;;5119404;27;20062;-80
2021/12/25 13:10:42;;;;;;;4.53;1.00;;;-0.80;99.90;;;;;;5111796;27;20061;-79
2021/12/25 13:13:22;;;;;;;2.58;0.93;;;-2.20;99.90;;;;;;5112457;27;20559;-80
2021/12/25 13:15:55;;;;;;;1.60;0.80;;;-1.50;99.90;;;;;;5128785;27;20059;-80
2021/12/25 13:18:33;;;;;;;2.33;0.70;;;-2.20;99.90;;;;;;5112770;27;20058;-79
2021/12/25 13:21:00;;;;;;;3.55;0.90;;;-1.00;99.90;;;;;;5112347;27;20055;-79
2021/12/25 13:23:32;;;;;;;1.65;0.88;;;-2.20;99.90;;;;;;5095182;27;20051;-80
2021/12/25 13:26:02;;;;;;;4.07;0.93;;;-0.90;99.90;;;;;;5128932;27;20057;-80
2021/12/25 13:28:30;;;;;;;1.70;0.88;;;-1.20;99.90;;;;;;5128207;27;20079;-80
2021/12/25 13:31:03;;;;;;;3.45;0.85;;;-2.20;99.90;;;;;;5126132;27;20069;-79
2021/12/25 13:33:31;;;;;;;1.85;0.88;;;-2.30;99.90;;;;;;5103420;27;20506;-79
2021/12/25 13:36:04;;;;;;;1.60;0.90;;;-1.60;99.90;;;;;;5126520;27;20111;-80
2021/12/25 13:38:47;;;;;;;2.58;0.90;;;-2.20;99.90;;;;;;5123099;27;20461;-80
2021/12/25 13:41:14;;;;;;;1.42;0.80;;;-1.90;99.90;;;;;;5112326;27;20437;-80
2021/12/25 13:43:40;;;;;;;2.80;0.80;;;-1.70;99.90;;;;;;5125164;27;20458;-80
2021/12/25 13:46:06;;;;;;;1.63;1.20;;;-2.20;99.90;;;;;;5127110;27;20043;-80
2021/12/25 13:48:39;;;;;;;1.80;1.17;;;-1.40;99.90;;;;;;5128106;27;20103;-80
2021/12/25 13:51:05;;;;;;;1.75;0.80;;;-1.20;99.90;;;;;;5110768;27;20047;-80
2021/12/25 13:53:32;;;;;;;1.50;0.90;;;-0.90;99.90;;;;;;5108682;27;20051;-79
2021/12/25 13:56:09;;;;;;;2.47;0.90;;;-2.30;99.90;;;;;;5109761;27;20369;-80
2021/12/25 13:58:35;;;;;;;1.17;0.70;;;-2.30;99.90;;;;;;5124978;27;20047;-80
2021/12/25 14:01:01;;;;;;;2.22;0.77;;;-1.90;99.90;;;;;;5095274;27;20428;-80
2021/12/25 14:03:29;;;;;;;1.85;0.80;;;-2.30;99.90;;;;;;5122878;27;20169;-78
2021/12/25 14:05:55;;;;;;;1.25;0.80;;;-2.30;99.90;;;;;;5106432;27;20061;-79
2021/12/25 14:08:23;;;;;;;1.75;0.90;;;-2.30;99.90;;;;;;5106505;27;20051;-79
2021/12/25 14:10:50;;;;;;;1.35;0.80;;;-2.40;99.90;;;;;;5124948;27;20078;-80
2021/12/25 14:13:19;;;;;;;2.95;1.05;;;-2.40;99.90;;;;;;5092679;27;20412;-80
2021/12/25 14:15:51;;;;;;;2.30;0.82;;;-2.20;99.90;;;;;;5123736;27;20062;-80
2021/12/25 14:18:18;;;;;;;1.60;0.80;;;-2.10;99.90;;;;;;5126227;27;20432;-79